createdAt,value
2023-02-17T00:01:19.943Z,23.65
2023-02-17T00:03:49.524Z,22.63
2023-02-17T00:06:19.727Z,25.42
2023-02-17T00:08:46.830Z,21.25
2023-02-17T00:11:14.495Z,21.27
2023-02-17T00:13:42.431Z,21.38
2023-02-17T00:16:10.841Z,20.88
2023-02-17T00:18:37.465Z,22.02
2023-02-17T00:21:13.427Z,22.25
2023-02-17T00:23:39.932Z,19.73
2023-02-17T00:26:07.996Z,18.45
2023-02-17T00:28:34.796Z,17.33
2023-02-17T00:31:09.646Z,18.05
2023-02-17T00:33:36.613Z,16.88
2023-02-17T00:36:09.103Z,17.63
2023-02-17T00:38:35.654Z,15.10
2023-02-17T00:41:02.413Z,18.73
2023-02-17T00:43:29.373Z,16.25
2023-02-17T00:45:55.940Z,15.25
2023-02-17T00:48:22.927Z,14.38
2023-02-17T00:50:49.668Z,14.77
2023-02-17T00:53:16.196Z,17.80
2023-02-17T00:55:42.735Z,16.73
2023-02-17T00:58:09.278Z,16.33
2023-02-17T01:00:35.792Z,16.67
2023-02-17T01:03:02.377Z,13.82
2023-02-17T01:05:28.872Z,14.82
2023-02-17T01:07:55.932Z,14.65
2023-02-17T01:10:22.595Z,15.15
2023-02-17T01:12:49.187Z,16.45
2023-02-17T01:15:15.771Z,17.73
2023-02-17T01:17:42.284Z,14.48
2023-02-17T01:20:09.322Z,17.52
2023-02-17T01:22:38.700Z,15.20
2023-02-17T01:25:05.354Z,15.52
2023-02-17T01:27:31.987Z,17.85
2023-02-17T01:29:58.484Z,15.73
2023-02-17T01:32:25.327Z,16.88
2023-02-17T01:34:51.792Z,15.27
2023-02-17T01:37:18.254Z,16.58
2023-02-17T01:39:44.737Z,15.45
2023-02-17T01:42:16.755Z,17.52
2023-02-17T01:45:27.786Z,15.77
2023-02-17T01:47:59.710Z,14.20
2023-02-17T01:50:45.020Z,13.43
2023-02-17T01:53:14.782Z,14.80
2023-02-17T01:55:42.446Z,14.93
2023-02-17T01:58:13.863Z,16.27
2023-02-17T02:00:40.852Z,16.00
2023-02-17T02:03:10.714Z,15.75
2023-02-17T02:05:39.631Z,15.65
2023-02-17T02:08:06.651Z,16.58
2023-02-17T02:10:33.387Z,14.02
2023-02-17T02:12:59.946Z,14.80
2023-02-17T02:15:33.416Z,14.20
2023-02-17T02:18:09.089Z,11.52
2023-02-17T02:20:47.687Z,13.75
2023-02-17T02:23:45.385Z,13.20
2023-02-17T02:26:23.992Z,13.88
2023-02-17T02:29:08.308Z,14.57
2023-02-17T02:31:51.414Z,15.07
2023-02-17T02:34:23.215Z,14.38
2023-02-17T02:37:07.629Z,15.75
2023-02-17T02:39:38.735Z,15.73
2023-02-17T02:42:08.647Z,18.27
2023-02-17T02:44:35.153Z,16.83
2023-02-17T02:47:26.226Z,14.82
2023-02-17T02:49:52.856Z,16.90
2023-02-17T02:52:28.618Z,16.67
2023-02-17T02:55:24.089Z,19.38
2023-02-17T02:58:11.377Z,16.30
2023-02-17T03:00:54.983Z,15.35
2023-02-17T03:03:30.814Z,15.88
2023-02-17T03:06:10.769Z,17.98
2023-02-17T03:08:46.306Z,17.42
2023-02-17T03:11:13.061Z,15.48
2023-02-17T03:13:41.166Z,15.15
2023-02-17T03:16:08.597Z,16.55
2023-02-17T03:18:35.900Z,15.43
2023-02-17T03:21:10.591Z,15.57
2023-02-17T03:23:37.106Z,15.50
2023-02-17T03:26:03.924Z,15.25
2023-02-17T03:28:31.359Z,15.88
2023-02-17T03:30:57.847Z,16.13
2023-02-17T03:33:24.363Z,15.35
2023-02-17T03:35:50.934Z,18.40
2023-02-17T03:38:17.412Z,13.57
2023-02-17T03:40:43.903Z,14.75
2023-02-17T03:43:10.611Z,16.13
2023-02-17T03:45:37.911Z,14.45
2023-02-17T03:48:04.540Z,15.23
2023-02-17T03:50:31.369Z,16.42
2023-02-17T03:52:57.884Z,13.43
2023-02-17T03:55:24.319Z,14.50
2023-02-17T03:57:50.794Z,15.13
2023-02-17T04:00:17.510Z,13.85
2023-02-17T04:02:44.374Z,14.30
2023-02-17T04:05:10.994Z,13.27
2023-02-17T04:07:37.474Z,14.90
2023-02-17T04:10:06.293Z,13.18
2023-02-17T04:12:33.735Z,16.42
2023-02-17T04:15:00.288Z,13.68
2023-02-17T04:17:26.799Z,12.85
2023-02-17T04:19:53.331Z,14.50
2023-02-17T04:22:19.867Z,12.73
2023-02-17T04:24:46.554Z,13.38
2023-02-17T04:27:13.209Z,13.70
2023-02-17T04:29:39.689Z,12.90
2023-02-17T04:32:06.196Z,14.40
2023-02-17T04:34:32.784Z,14.02
2023-02-17T04:36:59.261Z,13.98
2023-02-17T04:39:25.734Z,13.55
2023-02-17T04:41:52.180Z,16.23
2023-02-17T04:44:18.788Z,16.17
2023-02-17T04:46:45.341Z,12.60
2023-02-17T04:49:11.849Z,12.95
2023-02-17T04:51:38.482Z,12.55
2023-02-17T04:54:05.001Z,13.43
2023-02-17T04:56:31.508Z,17.08
2023-02-17T04:58:58.089Z,12.93
2023-02-17T05:01:24.624Z,12.13
2023-02-17T05:03:51.145Z,12.95
2023-02-17T05:06:17.720Z,12.18
2023-02-17T05:08:44.356Z,10.90
2023-02-17T05:11:10.885Z,14.45
2023-02-17T05:13:37.359Z,12.95
2023-02-17T05:16:04.285Z,13.55
2023-02-17T05:18:30.868Z,12.43
2023-02-17T05:20:57.390Z,14.15
2023-02-17T05:23:23.957Z,13.27
2023-02-17T05:25:50.544Z,14.15
2023-02-17T05:28:17.125Z,13.63
2023-02-17T05:30:43.590Z,13.50
2023-02-17T05:33:10.106Z,12.95
2023-02-17T05:35:36.600Z,13.27
2023-02-17T05:38:03.080Z,13.13
2023-02-17T05:40:29.769Z,11.73
2023-02-17T05:42:56.252Z,12.55
2023-02-17T05:45:22.827Z,12.68
2023-02-17T05:47:49.346Z,14.10
2023-02-17T05:50:15.852Z,13.32
2023-02-17T05:52:42.337Z,12.77
2023-02-17T05:55:08.849Z,14.18
2023-02-17T05:57:35.503Z,14.65
2023-02-17T06:00:02.230Z,16.67
2023-02-17T06:02:28.719Z,14.50
2023-02-17T06:04:55.218Z,13.63
2023-02-17T06:07:21.734Z,12.10
2023-02-17T06:09:48.158Z,12.38
2023-02-17T06:12:14.678Z,11.90
2023-02-17T06:14:41.439Z,12.68
2023-02-17T06:17:08.397Z,12.02
2023-02-17T06:19:34.888Z,11.05
2023-02-17T06:22:01.314Z,11.65
2023-02-17T06:24:27.825Z,11.77
2023-02-17T06:26:54.418Z,11.20
2023-02-17T06:29:20.958Z,11.43
2023-02-17T06:31:47.497Z,11.63
2023-02-17T06:34:14.096Z,16.30
2023-02-17T06:36:40.573Z,11.68
2023-02-17T06:39:07.043Z,18.50
2023-02-17T06:41:33.656Z,14.82
2023-02-17T06:44:00.160Z,13.38
2023-02-17T06:46:26.574Z,12.52
2023-02-17T06:48:53.058Z,12.48
2023-02-17T06:51:19.479Z,12.35
2023-02-17T06:53:45.926Z,11.30
2023-02-17T06:56:12.326Z,11.43
2023-02-17T06:58:38.815Z,9.77
2023-02-17T07:01:05.489Z,11.30
2023-02-17T07:03:32.061Z,12.38
2023-02-17T07:05:59.580Z,11.27
2023-02-17T07:08:26.129Z,10.30
2023-02-17T07:10:52.721Z,12.38
2023-02-17T07:13:19.261Z,10.10
2023-02-17T07:15:45.683Z,10.50
2023-02-17T07:18:12.122Z,11.05
2023-02-17T07:20:39.373Z,9.60
2023-02-17T07:23:05.910Z,10.60
2023-02-17T07:25:32.411Z,11.10
2023-02-17T07:28:00.164Z,11.23
2023-02-17T07:30:26.684Z,10.68
2023-02-17T07:32:53.147Z,10.15
2023-02-17T07:35:19.639Z,10.85
2023-02-17T07:37:46.077Z,12.13
2023-02-17T07:40:12.849Z,14.43
2023-02-17T07:42:39.425Z,11.82
2023-02-17T07:45:07.172Z,12.63
2023-02-17T07:47:33.727Z,12.80
2023-02-17T07:50:00.253Z,12.65
2023-02-17T07:52:26.727Z,13.48
2023-02-17T07:54:53.205Z,12.95
2023-02-17T07:57:19.655Z,12.45
2023-02-17T07:59:47.445Z,14.10
2023-02-17T08:02:14.154Z,12.23
2023-02-17T08:04:40.824Z,13.65
2023-02-17T08:07:07.403Z,11.98
2023-02-17T08:09:52.866Z,15.18
2023-02-17T08:12:39.166Z,15.23
2023-02-17T08:15:08.405Z,14.77
2023-02-17T08:17:35.633Z,13.10
2023-02-17T08:20:08.705Z,12.02
2023-02-17T08:22:36.266Z,13.05
2023-02-17T08:25:05.867Z,11.45
2023-02-17T08:27:32.619Z,13.30
2023-02-17T08:29:59.292Z,9.70
2023-02-17T08:32:26.189Z,12.30
2023-02-17T08:34:56.732Z,11.52
2023-02-17T08:37:23.424Z,11.38
2023-02-17T08:39:50.161Z,10.60
2023-02-17T08:42:17.836Z,10.43
2023-02-17T08:44:44.722Z,11.57
2023-02-17T08:47:11.694Z,11.30
2023-02-17T08:49:38.314Z,11.52
2023-02-17T08:52:04.969Z,14.07
2023-02-17T08:54:33.445Z,13.73
2023-02-17T08:57:00.148Z,13.80
2023-02-17T08:59:26.934Z,11.85
2023-02-17T09:01:56.374Z,8.55
2023-02-17T09:04:23.184Z,9.82
2023-02-17T09:06:51.786Z,9.23
2023-02-17T09:09:22.496Z,10.75
2023-02-17T09:11:49.643Z,9.27
2023-02-17T09:14:16.557Z,6.38
2023-02-17T09:16:43.251Z,6.70
2023-02-17T09:19:10.283Z,9.95
2023-02-17T09:21:36.928Z,8.48
2023-02-17T09:24:03.803Z,8.48
2023-02-17T09:26:30.630Z,7.78
2023-02-17T09:28:57.984Z,7.65
2023-02-17T09:31:27.003Z,9.20
2023-02-17T09:33:55.115Z,6.68
2023-02-17T09:36:25.300Z,8.35
2023-02-17T09:38:53.259Z,7.53
2023-02-17T09:41:27.156Z,6.82
2023-02-17T09:43:55.430Z,6.40
2023-02-17T09:46:25.046Z,7.45
2023-02-17T09:48:56.607Z,8.15
2023-02-17T09:52:11.471Z,9.50
2023-02-17T09:54:53.565Z,8.77
2023-02-17T09:57:27.212Z,6.25
2023-02-17T10:00:14.434Z,5.88
2023-02-17T10:03:01.058Z,7.00
2023-02-17T10:05:34.955Z,8.40
2023-02-17T10:08:11.600Z,9.05
2023-02-17T10:10:46.041Z,7.45
2023-02-17T10:13:17.329Z,5.72
2023-02-17T10:15:49.797Z,5.28
2023-02-17T10:18:30.647Z,4.20
2023-02-17T10:21:02.170Z,5.55
2023-02-17T10:23:29.692Z,5.13
2023-02-17T10:26:09.186Z,5.38
2023-02-17T10:29:04.722Z,7.20
2023-02-17T10:31:41.562Z,6.15
2023-02-17T10:34:26.402Z,5.68
2023-02-17T10:37:01.024Z,7.13
2023-02-17T10:39:50.175Z,5.32
2023-02-17T10:42:30.119Z,7.43
2023-02-17T10:45:10.640Z,5.75
2023-02-17T10:47:40.024Z,7.28
2023-02-17T10:50:19.382Z,4.57
2023-02-17T10:52:46.323Z,6.85
2023-02-17T10:55:40.661Z,5.03
2023-02-17T10:58:15.558Z,7.68
2023-02-17T11:00:43.008Z,3.80
2023-02-17T11:03:21.180Z,3.38
2023-02-17T11:05:57.763Z,6.25
2023-02-17T11:08:30.381Z,4.90
2023-02-17T11:11:05.650Z,4.10
2023-02-17T11:13:43.812Z,6.15
2023-02-17T11:16:32.360Z,4.47
2023-02-17T11:19:00.931Z,5.68
2023-02-17T11:21:33.129Z,3.40
2023-02-17T11:24:03.936Z,3.88
2023-02-17T11:26:34.870Z,4.13
2023-02-17T11:29:17.546Z,3.85
2023-02-17T11:32:08.962Z,3.67
2023-02-17T11:34:39.375Z,8.77
2023-02-17T11:37:21.850Z,5.60
2023-02-17T11:39:50.982Z,5.93
2023-02-17T11:42:30.355Z,5.05
2023-02-17T11:44:59.493Z,9.07
2023-02-17T11:47:38.153Z,6.13
2023-02-17T11:50:41.299Z,6.53
2023-02-17T11:53:23.433Z,6.13
2023-02-17T11:56:11.704Z,4.97
2023-02-17T11:58:44.425Z,5.85
2023-02-17T12:01:52.526Z,7.22
2023-02-17T12:04:32.694Z,9.05
2023-02-17T12:07:17.983Z,7.20
2023-02-17T12:09:56.026Z,8.77
2023-02-17T12:12:55.466Z,7.55
2023-02-17T12:18:14.882Z,9.68
2023-02-17T12:20:45.647Z,7.22
2023-02-17T12:23:35.945Z,5.90
2023-02-17T12:26:43.927Z,5.82
2023-02-17T12:29:25.773Z,6.43
2023-02-17T12:31:58.691Z,6.13
2023-02-17T12:34:52.788Z,7.85
2023-02-17T12:37:24.555Z,3.72
2023-02-17T12:39:53.843Z,9.18
2023-02-17T12:42:27.054Z,8.00
2023-02-17T12:45:02.727Z,12.80
2023-02-17T12:47:45.004Z,5.68
2023-02-17T12:50:23.850Z,6.60
2023-02-17T12:52:55.378Z,6.63
2023-02-17T12:55:27.879Z,5.55
2023-02-17T12:58:07.862Z,4.03
2023-02-17T13:00:43.603Z,6.30
2023-02-17T13:03:10.982Z,5.30
2023-02-17T13:05:52.289Z,7.00
2023-02-17T13:08:25.256Z,5.20
2023-02-17T13:11:04.109Z,4.53
2023-02-17T13:13:33.788Z,6.95
2023-02-17T13:16:13.146Z,8.55
2023-02-17T13:18:43.013Z,7.10
2023-02-17T13:21:31.833Z,8.88
2023-02-17T13:24:03.157Z,7.97
2023-02-17T13:26:32.611Z,10.10
2023-02-17T13:29:24.177Z,5.90
2023-02-17T13:31:55.354Z,5.78
2023-02-17T13:34:29.341Z,9.90
2023-02-17T13:36:56.917Z,5.25
2023-02-17T13:39:29.537Z,4.13
2023-02-17T13:41:59.138Z,5.55
2023-02-17T13:47:06.587Z,6.10
2023-02-17T13:49:35.047Z,5.07
2023-02-17T13:52:19.019Z,6.68
2023-02-17T13:55:01.693Z,6.97
2023-02-17T13:57:29.810Z,6.65
2023-02-17T14:00:20.076Z,9.07
2023-02-17T14:02:53.121Z,6.65
2023-02-17T14:05:37.183Z,5.05
2023-02-17T14:08:11.878Z,12.35
2023-02-17T14:10:38.745Z,6.40
2023-02-17T14:13:10.376Z,7.50
2023-02-17T14:15:37.974Z,7.22
2023-02-17T14:18:15.827Z,6.88
2023-02-17T14:20:42.790Z,9.85
2023-02-17T14:23:15.802Z,7.32
2023-02-17T14:25:46.557Z,8.32
2023-02-17T14:28:28.364Z,12.75
2023-02-17T14:30:55.074Z,9.18
2023-02-17T14:33:24.417Z,12.55
2023-02-17T14:36:04.402Z,14.77
2023-02-17T14:38:37.601Z,9.20
2023-02-17T14:41:05.698Z,8.90
2023-02-17T14:43:32.985Z,10.65
2023-02-17T14:45:59.755Z,9.43
2023-02-17T14:48:27.908Z,11.50
2023-02-17T14:50:56.979Z,11.05
2023-02-17T14:53:33.106Z,7.27
2023-02-17T14:56:06.603Z,13.20
2023-02-17T14:58:33.705Z,8.30
2023-02-17T15:01:00.640Z,11.35
2023-02-17T15:03:27.715Z,9.70
2023-02-17T15:05:54.919Z,9.38
2023-02-17T15:08:32.058Z,15.25
2023-02-17T15:10:59.173Z,12.13
2023-02-17T15:13:26.473Z,10.02
2023-02-17T15:15:53.941Z,15.07
2023-02-17T15:18:21.025Z,14.90
2023-02-17T15:20:50.274Z,17.35
2023-02-17T15:23:22.391Z,11.15
2023-02-17T15:25:49.700Z,13.82
2023-02-17T15:28:19.015Z,8.82
2023-02-17T15:30:51.459Z,12.20
2023-02-17T15:33:18.526Z,10.73
2023-02-17T15:35:51.018Z,12.15
2023-02-17T15:38:17.673Z,10.57
2023-02-17T15:40:44.378Z,8.85
2023-02-17T15:43:21.696Z,6.32
2023-02-17T15:45:48.951Z,7.25
2023-02-17T15:48:23.811Z,9.23
2023-02-17T15:50:51.103Z,10.13
2023-02-17T15:53:18.836Z,6.45
2023-02-17T15:55:46.764Z,8.18
2023-02-17T15:58:16.814Z,7.50
2023-02-17T16:00:46.311Z,8.35
2023-02-17T16:03:13.900Z,6.65
2023-02-17T16:05:41.412Z,5.75
2023-02-17T16:08:08.581Z,11.82
2023-02-17T16:10:36.074Z,7.60
2023-02-17T16:13:03.183Z,8.68
2023-02-17T16:15:32.733Z,4.43
2023-02-17T16:20:30.107Z,7.10
2023-02-17T16:22:56.668Z,7.28
2023-02-17T16:25:23.628Z,6.40
2023-02-17T16:27:51.791Z,6.15
2023-02-17T16:30:23.167Z,13.40
2023-02-17T16:32:50.793Z,8.95
2023-02-17T16:35:20.193Z,6.72
2023-02-17T16:37:52.928Z,7.53
2023-02-17T16:40:22.223Z,5.95
2023-02-17T16:42:48.809Z,5.18
2023-02-17T16:45:24.409Z,8.35
2023-02-17T16:47:53.398Z,6.32
2023-02-17T16:50:40.088Z,9.05
2023-02-17T16:53:10.574Z,4.40
2023-02-17T16:55:37.316Z,7.55
2023-02-17T16:58:10.703Z,6.38
2023-02-17T17:00:37.172Z,6.65
2023-02-17T17:03:03.688Z,8.02
2023-02-17T17:05:31.000Z,10.75
2023-02-17T17:07:57.477Z,7.22
2023-02-17T17:10:31.212Z,8.50
2023-02-17T17:12:58.238Z,6.97
2023-02-17T17:15:25.601Z,3.55
2023-02-17T17:18:00.917Z,5.38
2023-02-17T17:20:31.949Z,4.88
2023-02-17T17:23:04.126Z,11.82
2023-02-17T17:25:30.856Z,9.55
2023-02-17T17:27:57.923Z,3.83
2023-02-17T17:30:27.688Z,6.75
2023-02-17T17:32:54.158Z,4.53
2023-02-17T17:35:21.343Z,6.47
2023-02-17T17:37:48.111Z,5.13
2023-02-17T17:40:17.040Z,5.18
2023-02-17T17:42:43.975Z,6.50
2023-02-17T17:45:12.620Z,6.80
2023-02-17T17:47:40.031Z,6.97
2023-02-17T17:50:11.066Z,4.88
2023-02-17T17:52:38.477Z,6.53
2023-02-17T17:55:05.304Z,7.10
2023-02-17T17:57:31.788Z,5.28
2023-02-17T17:59:58.298Z,9.10
2023-02-17T18:02:24.927Z,6.78
2023-02-17T18:04:51.711Z,8.57
2023-02-17T18:07:18.388Z,10.73
2023-02-17T18:09:47.903Z,6.63
2023-02-17T18:14:43.846Z,10.18
2023-02-17T18:17:12.690Z,4.93
2023-02-17T18:19:40.277Z,6.85
2023-02-17T18:22:07.215Z,10.20
2023-02-17T18:24:33.792Z,8.18
2023-02-17T18:27:00.256Z,8.32
2023-02-17T18:29:27.631Z,7.32
2023-02-17T18:31:54.270Z,6.43
2023-02-17T18:34:20.973Z,7.25
2023-02-17T18:36:47.406Z,8.73
2023-02-17T18:39:13.894Z,6.70
2023-02-17T18:41:40.494Z,7.45
2023-02-17T18:44:07.363Z,7.53
2023-02-17T18:46:34.091Z,6.88
2023-02-17T18:49:00.686Z,7.35
2023-02-17T18:51:27.705Z,10.25
2023-02-17T18:53:56.448Z,11.73
2023-02-17T18:56:26.817Z,8.10
2023-02-17T18:58:55.120Z,9.90
2023-02-17T19:01:28.213Z,11.50
2023-02-17T19:03:55.204Z,9.02
2023-02-17T19:06:24.941Z,7.38
2023-02-17T19:08:52.596Z,8.75
2023-02-17T19:11:20.883Z,10.07
2023-02-17T19:13:47.663Z,8.98
2023-02-17T19:16:20.627Z,11.00
2023-02-17T19:18:47.333Z,10.23
2023-02-17T19:21:14.443Z,9.50
2023-02-17T19:23:41.688Z,10.50
2023-02-17T19:26:10.118Z,10.85
2023-02-17T19:28:37.481Z,10.57
2023-02-17T19:31:12.944Z,11.95
2023-02-17T19:33:39.803Z,10.02
2023-02-17T19:36:11.698Z,11.45
2023-02-17T19:38:38.246Z,10.65
2023-02-17T19:41:06.781Z,10.07
2023-02-17T19:43:33.585Z,14.63
2023-02-17T19:46:00.601Z,10.98
2023-02-17T19:48:27.446Z,11.88
2023-02-17T19:51:05.468Z,10.30
2023-02-17T19:53:33.153Z,12.35
2023-02-17T19:56:22.626Z,14.15
2023-02-17T19:58:49.804Z,12.60
2023-02-17T20:01:19.349Z,12.40
2023-02-17T20:06:22.186Z,12.45
2023-02-17T20:08:54.366Z,15.65
2023-02-17T20:11:24.574Z,11.02
2023-02-17T20:13:51.064Z,13.27
2023-02-17T20:16:18.198Z,11.73
2023-02-17T20:18:48.047Z,13.60
2023-02-17T20:21:18.294Z,13.52
2023-02-17T20:23:45.149Z,12.73
2023-02-17T20:26:15.217Z,12.80
2023-02-17T20:28:42.306Z,13.57
2023-02-17T20:31:09.867Z,13.38
2023-02-17T20:33:37.125Z,11.90
2023-02-17T20:36:05.247Z,12.80
2023-02-17T20:38:31.939Z,15.30
2023-02-17T20:40:59.236Z,15.63
2023-02-17T20:43:25.951Z,14.32
2023-02-17T20:45:53.275Z,14.07
2023-02-17T20:48:20.588Z,15.50
2023-02-17T20:50:47.694Z,16.85
2023-02-17T20:53:14.223Z,14.60
2023-02-17T20:55:40.802Z,15.90
2023-02-17T20:58:07.434Z,16.73
2023-02-17T21:00:34.101Z,13.68
2023-02-17T21:03:00.748Z,14.88
2023-02-17T21:05:27.345Z,15.52
2023-02-17T21:07:56.127Z,14.88
2023-02-17T21:10:25.949Z,15.30
2023-02-17T21:12:52.814Z,15.10
2023-02-17T21:15:19.590Z,14.07
2023-02-17T21:17:46.433Z,16.10
2023-02-17T21:20:16.927Z,13.43
2023-02-17T21:22:43.565Z,13.07
2023-02-17T21:25:11.022Z,13.18
2023-02-17T21:27:37.980Z,12.90
2023-02-17T21:30:06.528Z,14.80
2023-02-17T21:32:33.020Z,12.47
2023-02-17T21:34:59.484Z,13.30
2023-02-17T21:37:26.060Z,14.55
2023-02-17T21:39:52.569Z,13.90
2023-02-17T21:42:39.096Z,13.65
2023-02-17T21:45:05.915Z,13.52
2023-02-17T21:47:33.156Z,18.02
2023-02-17T21:49:59.735Z,15.55
2023-02-17T21:52:26.259Z,15.38
2023-02-17T21:54:55.638Z,12.68
2023-02-17T21:57:22.112Z,12.57
2023-02-17T21:59:48.603Z,15.40
2023-02-17T22:02:15.755Z,13.73
2023-02-17T22:04:42.285Z,14.95
2023-02-17T22:07:17.043Z,16.15
2023-02-17T22:09:43.590Z,15.57
2023-02-17T22:12:10.090Z,18.95
2023-02-17T22:14:36.583Z,16.20
2023-02-17T22:17:03.253Z,16.67
2023-02-17T22:19:31.449Z,15.48
2023-02-17T22:21:58.404Z,15.95
2023-02-17T22:24:27.060Z,15.68
2023-02-17T22:26:54.418Z,14.70
2023-02-17T22:29:21.149Z,16.42
2023-02-17T22:31:48.102Z,16.40
2023-02-17T22:34:15.403Z,15.93
2023-02-17T22:36:41.899Z,16.15
2023-02-17T22:39:08.652Z,15.32
2023-02-17T22:41:35.869Z,14.73
2023-02-17T22:44:03.226Z,18.15
2023-02-17T22:46:29.829Z,18.13
2023-02-17T22:48:57.268Z,16.63
2023-02-17T22:51:27.336Z,18.25
2023-02-17T22:53:53.881Z,20.08
2023-02-17T22:56:20.633Z,20.63
2023-02-17T22:58:47.578Z,19.73
2023-02-17T23:01:20.533Z,21.73
2023-02-17T23:03:51.789Z,22.40
2023-02-17T23:06:22.768Z,19.77
2023-02-17T23:08:50.449Z,21.38
2023-02-17T23:11:39.737Z,19.60
2023-02-17T23:14:07.271Z,21.73
2023-02-17T23:16:34.136Z,19.42
2023-02-17T23:19:00.748Z,20.50
2023-02-17T23:21:27.427Z,17.15
2023-02-17T23:23:53.986Z,19.98
2023-02-17T23:26:20.525Z,17.25
2023-02-17T23:28:46.999Z,18.48
2023-02-17T23:31:13.591Z,18.58
2023-02-17T23:33:40.140Z,19.13
2023-02-17T23:36:07.715Z,18.50
2023-02-17T23:38:34.599Z,18.23
2023-02-17T23:41:01.385Z,19.35
2023-02-17T23:43:28.627Z,16.30
2023-02-17T23:45:56.476Z,16.60
2023-02-17T23:48:23.505Z,19.02
2023-02-17T23:51:00.926Z,18.05
2023-02-17T23:53:28.013Z,18.38
2023-02-17T23:56:06.530Z,18.48
2023-02-17T23:58:34.736Z,18.30
